Time;durP1;ratioP1;P1;durP2;ratioP2;P2;SDS_P1;SDS_P2;PMS_P1;PMS_P2;Temp;Humidity;BMP_temperature;BMP_pressure;BME280_temperature;BME280_humidity;BME280_pressure;Samples;Min_cycle;Max_cycle;Signal;HPM_P1;HPM_P2
2021/10/31 00:00:46;;;;;;;;;;;11.70;99.90;;;;;;5052713;28;19913;-79
2021/10/31 00:03:14;;;;;;;;;;;11.70;99.90;;;;;;5046866;28;19920;-79
2021/10/31 00:05:39;;;;;;;;;;;11.70;99.90;;;;;;5046509;28;20331;-78
2021/10/31 00:08:05;;;;;;;;;;;11.60;99.90;;;;;;5045994;28;19924;-79
2021/10/31 00:10:30;;;;;;;;;;;11.70;99.90;;;;;;5050250;28;19966;-78
2021/10/31 00:12:56;;;;;;;;;;;11.70;99.90;;;;;;5049267;28;19913;-78
2021/10/31 00:15:22;;;;;;;;;;;11.70;99.90;;;;;;5050300;28;19978;-78
2021/10/31 00:17:49;;;;;;;;;;;11.70;99.90;;;;;;5049363;28;21973;-78
2021/10/31 00:20:14;;;;;;;;;;;11.70;99.90;;;;;;5053167;28;20357;-78
2021/10/31 00:22:44;;;;;;;;;;;11.60;99.90;;;;;;5043947;28;19917;-78
2021/10/31 00:25:10;;;;;;;;;;;11.70;99.90;;;;;;5047874;28;19913;-79
2021/10/31 00:27:35;;;;;;;;;;;11.60;99.90;;;;;;5069533;28;20293;-80
2021/10/31 00:30:01;;;;;;;;;;;11.60;99.90;;;;;;5050198;28;19967;-80
2021/10/31 00:32:26;;;;;;;;;;;11.60;99.90;;;;;;5051457;28;19959;-79
2021/10/31 00:34:52;;;;;;;;;;;11.60;99.90;;;;;;5051526;28;19952;-79
2021/10/31 00:37:18;;;;;;;;;;;11.60;99.90;;;;;;5051905;28;19970;-79
2021/10/31 00:39:43;;;;;;;;;;;11.60;99.90;;;;;;5047005;28;20171;-78
2021/10/31 00:42:09;;;;;;;;;;;11.60;99.90;;;;;;5051777;28;19988;-79
2021/10/31 00:44:34;;;;;;;;;;;11.60;99.90;;;;;;5048816;28;19960;-79
2021/10/31 00:47:00;;;;;;;;;;;11.60;99.90;;;;;;5043849;28;19956;-79
2021/10/31 00:49:25;;;;;;;;;;;11.60;99.90;;;;;;5064313;28;20250;-79
2021/10/31 00:51:52;;;;;;;;;;;11.60;99.90;;;;;;5044897;28;19924;-79
2021/10/31 00:54:17;;;;;;;;;;;11.60;99.90;;;;;;5048428;28;19920;-77
2021/10/31 00:56:43;;;;;;;;;;;11.60;99.90;;;;;;5049772;28;19912;-78
2021/10/31 00:59:08;;;;;;;;;;;11.60;99.90;;;;;;5050332;28;20344;-79
2021/10/31 01:01:34;;;;;;;;;;;11.70;99.90;;;;;;5047860;28;20062;-79
2021/10/31 01:04:00;;;;;;;;;;;11.60;99.90;;;;;;5048479;28;19923;-79
2021/10/31 01:06:25;;;;;;;;;;;11.60;99.90;;;;;;5046589;28;20354;-79
2021/10/31 01:08:57;;;;;;;;;;;11.60;99.90;;;;;;5045559;28;19913;-79
2021/10/31 01:11:46;;;;;;;;;;;11.50;99.90;;;;;;5048335;28;19928;-78
2021/10/31 01:14:24;;;;;;;;;;;11.60;99.90;;;;;;5048197;28;19924;-79
2021/10/31 01:16:52;;;;;;;;;;;11.50;99.90;;;;;;5046964;28;19916;-78
2021/10/31 01:19:36;;;;;;;;;;;11.50;99.90;;;;;;5050117;28;19913;-79
2021/10/31 01:22:11;;;;;;;;;;;11.50;99.90;;;;;;5045247;28;19913;-78
2021/10/31 01:24:44;;;;;;;;;;;11.50;99.90;;;;;;5047778;28;19920;-78
2021/10/31 01:27:12;;;;;;;;;;;11.40;99.90;;;;;;5046343;28;19977;-79
2021/10/31 01:29:58;;;;;;;;;;;11.50;99.90;;;;;;5048977;28;19970;-79
2021/10/31 01:32:39;;;;;;;;;;;11.50;99.90;;;;;;5051828;28;19920;-79
2021/10/31 01:35:14;;;;;;;;;;;11.50;99.90;;;;;;5049809;28;20003;-78
2021/10/31 01:37:42;;;;;;;;;;;11.40;99.90;;;;;;5049110;28;19913;-78
2021/10/31 01:40:07;;;;;;;;;;;11.40;99.90;;;;;;5043445;28;20431;-79
2021/10/31 01:42:39;;;;;;;;;;;11.40;99.90;;;;;;5045339;28;19912;-79
2021/10/31 01:45:11;;;;;;;;;;;11.40;99.90;;;;;;5049851;28;20027;-79
2021/10/31 01:47:36;;;;;;;;;;;11.40;99.90;;;;;;5046851;28;20385;-80
2021/10/31 01:50:07;;;;;;;;;;;11.40;99.90;;;;;;5047493;28;19920;-80
2021/10/31 01:52:41;;;;;;;;;;;11.30;99.90;;;;;;5049787;28;20448;-80
2021/10/31 01:55:16;;;;;;;;;;;11.30;99.90;;;;;;5048284;28;19912;-78
2021/10/31 01:57:44;;;;;;;;;;;11.30;99.90;;;;;;5064731;28;19936;-79
2021/10/31 02:00:12;;;;;;;;;;;11.30;99.90;;;;;;5050783;28;19936;-80
2021/10/31 02:02:40;;;;;;;;;;;11.40;99.90;;;;;;5045506;28;19921;-78
2021/10/31 02:05:07;;;;;;;;;;;11.30;99.90;;;;;;5047801;28;19913;-79
2021/10/31 02:07:36;;;;;;;;;;;11.30;99.90;;;;;;5055114;28;19917;-78
2021/10/31 02:10:03;;;;;;;;;;;11.30;99.90;;;;;;5054299;28;19912;-78
2021/10/31 02:12:29;;;;;;;;;;;11.30;99.90;;;;;;5052751;28;20026;-79
2021/10/31 02:14:54;;;;;;;;;;;11.30;99.90;;;;;;5051668;28;20358;-80
2021/10/31 02:17:21;;;;;;;;;;;11.30;99.90;;;;;;5039803;28;19920;-80
2021/10/31 02:19:47;;;;;;;;;;;11.30;99.90;;;;;;5046723;28;20285;-79
2021/10/31 02:22:20;;;;;;;;;;;11.30;99.90;;;;;;5052055;28;19925;-79
2021/10/31 02:24:45;;;;;;;;;;;11.30;99.90;;;;;;5054733;28;19912;-79
2021/10/31 02:27:12;;;;;;;;;;;11.30;99.90;;;;;;5047763;28;19921;-80
2021/10/31 02:29:51;;;;;;;;;;;11.30;99.90;;;;;;5054012;28;19940;-79
2021/10/31 02:32:18;;;;;;;;;;;11.30;99.90;;;;;;5053638;28;20008;-79
2021/10/31 02:34:43;;;;;;;;;;;11.30;99.90;;;;;;5051822;28;19920;-80
2021/10/31 02:37:09;;;;;;;;;;;11.30;99.90;;;;;;5054909;28;20380;-78
2021/10/31 02:39:36;;;;;;;;;;;11.30;99.90;;;;;;5055380;28;19912;-79
2021/10/31 02:42:02;;;;;;;;;;;11.20;99.90;;;;;;5046087;28;19913;-80
2021/10/31 02:44:28;;;;;;;;;;;11.20;99.90;;;;;;5043524;28;19914;-80
2021/10/31 02:46:54;;;;;;;;;;;11.20;99.90;;;;;;5053649;28;19924;-79
2021/10/31 02:49:20;;;;;;;;;;;11.30;99.90;;;;;;5046251;28;20515;-80
2021/10/31 02:51:49;;;;;;;;;;;11.30;99.90;;;;;;5046690;28;19919;-79
2021/10/31 02:54:14;;;;;;;;;;;11.30;99.90;;;;;;5050731;28;19913;-79
2021/10/31 02:56:39;;;;;;;;;;;11.20;99.90;;;;;;5052038;28;19917;-78
2021/10/31 02:59:08;;;;;;;;;;;11.20;99.90;;;;;;5050125;28;19913;-78
2021/10/31 03:01:34;;;;;;;;;;;11.20;99.90;;;;;;5052102;28;20393;-79
2021/10/31 03:04:00;;;;;;;;;;;11.20;99.90;;;;;;5054196;28;19917;-79
2021/10/31 03:06:26;;;;;;;;;;;11.20;99.90;;;;;;5055946;28;20019;-78
2021/10/31 03:08:51;;;;;;;;;;;11.10;99.90;;;;;;5054501;28;19926;-76
2021/10/31 03:11:17;;;;;;;;;;;11.10;99.90;;;;;;5054614;28;19944;-78
2021/10/31 03:13:42;;;;;;;;;;;11.10;99.90;;;;;;5054845;28;19913;-78
2021/10/31 03:16:09;;;;;;;;;;;11.10;99.90;;;;;;5054346;28;20019;-78
2021/10/31 03:18:36;;;;;;;;;;;11.10;99.90;;;;;;5054241;28;19919;-76
2021/10/31 03:21:02;;;;;;;;;;;11.20;99.90;;;;;;5053013;28;20346;-76
2021/10/31 03:23:27;;;;;;;;;;;11.10;99.90;;;;;;5055378;28;19909;-77
2021/10/31 03:25:53;;;;;;;;;;;11.10;99.90;;;;;;5054333;28;19999;-77
2021/10/31 03:28:19;;;;;;;;;;;11.10;99.90;;;;;;5055365;28;19974;-78
2021/10/31 03:30:44;;;;;;;;;;;11.00;99.90;;;;;;5055675;28;20007;-78
2021/10/31 03:33:10;;;;;;;;;;;11.00;99.90;;;;;;5055401;28;19920;-78
2021/10/31 03:35:36;;;;;;;;;;;11.00;99.90;;;;;;5053984;28;19908;-78
2021/10/31 03:38:01;;;;;;;;;;;11.00;99.90;;;;;;5054143;28;19909;-79
2021/10/31 03:40:27;;;;;;;;;;;11.00;99.90;;;;;;5051875;28;19913;-78
2021/10/31 03:42:52;;;;;;;;;;;11.00;99.90;;;;;;5055173;28;19913;-79
2021/10/31 03:45:18;;;;;;;;;;;11.00;99.90;;;;;;5054281;28;19916;-78
2021/10/31 03:47:48;;;;;;;;;;;11.00;99.90;;;;;;5055238;28;19970;-78
2021/10/31 03:50:14;;;;;;;;;;;11.10;99.90;;;;;;5053646;28;20013;-78
2021/10/31 03:52:40;;;;;;;;;;;11.10;99.90;;;;;;5053527;28;20365;-78
2021/10/31 03:55:07;;;;;;;;;;;11.10;99.90;;;;;;5055450;28;19909;-78
2021/10/31 03:57:33;;;;;;;;;;;11.10;99.90;;;;;;5053755;28;19919;-78
2021/10/31 03:59:59;;;;;;;;;;;11.10;99.90;;;;;;5055034;28;19999;-76
2021/10/31 04:02:24;;;;;;;;;;;11.00;99.90;;;;;;5054888;28;20370;-77
2021/10/31 04:04:50;;;;;;;;;;;11.00;99.90;;;;;;5053573;28;20011;-78
2021/10/31 04:07:15;;;;;;;;;;;11.00;99.90;;;;;;5055165;28;20271;-78
2021/10/31 04:09:41;;;;;;;;;;;11.00;99.90;;;;;;5053295;28;19913;-78
2021/10/31 04:12:06;;;;;;;;;;;10.90;99.90;;;;;;5053918;28;20415;-77
2021/10/31 04:14:32;;;;;;;;;;;10.90;99.90;;;;;;5053235;28;19966;-78
2021/10/31 04:16:57;;;;;;;;;;;10.90;99.90;;;;;;5054906;28;19958;-78
2021/10/31 04:19:23;;;;;;;;;;;11.00;99.90;;;;;;5054691;28;19952;-77
2021/10/31 04:21:48;;;;;;;;;;;10.90;99.90;;;;;;5053168;28;19913;-78
2021/10/31 04:24:14;;;;;;;;;;;10.90;99.90;;;;;;5054056;28;20373;-78
2021/10/31 04:26:39;;;;;;;;;;;10.90;99.90;;;;;;5053280;28;19933;-78
2021/10/31 04:29:05;;;;;;;;;;;10.90;99.90;;;;;;5054500;28;20231;-78
2021/10/31 04:31:30;;;;;;;;;;;10.90;99.90;;;;;;5054368;28;19920;-78
2021/10/31 04:33:56;;;;;;;;;;;10.90;99.90;;;;;;5053386;28;19909;-79
2021/10/31 04:36:21;;;;;;;;;;;10.80;99.90;;;;;;5054300;28;19919;-78
2021/10/31 04:38:52;;;;;;;;;;;10.90;99.90;;;;;;5053176;28;20216;-77
2021/10/31 04:41:18;;;;;;;;;;;10.90;99.90;;;;;;5048412;28;19912;-77
2021/10/31 04:43:43;;;;;;;;;;;10.80;99.90;;;;;;5054241;28;19995;-78
2021/10/31 04:46:09;;;;;;;;;;;10.90;99.90;;;;;;5053921;28;19917;-78
2021/10/31 04:48:34;;;;;;;;;;;10.90;99.90;;;;;;5054119;28;19938;-78
2021/10/31 04:51:00;;;;;;;;;;;10.90;99.90;;;;;;5052770;28;20340;-79
2021/10/31 04:53:25;;;;;;;;;;;10.90;99.90;;;;;;5052289;28;20338;-79
2021/10/31 04:55:51;;;;;;;;;;;10.80;99.90;;;;;;5054176;28;19913;-79
2021/10/31 04:58:16;;;;;;;;;;;10.80;99.90;;;;;;5052852;28;19909;-77
2021/10/31 05:00:42;;;;;;;;;;;10.80;99.90;;;;;;5052075;28;20427;-79
2021/10/31 05:03:07;;;;;;;;;;;10.70;99.90;;;;;;5053671;28;19960;-78
2021/10/31 05:05:33;;;;;;;;;;;10.70;99.90;;;;;;5052352;28;19919;-77
2021/10/31 05:07:59;;;;;;;;;;;10.70;99.90;;;;;;5052026;28;19916;-78
2021/10/31 05:10:25;;;;;;;;;;;10.60;99.90;;;;;;5052331;28;19912;-78
2021/10/31 05:12:51;;;;;;;;;;;10.60;99.90;;;;;;5053683;28;20435;-77
2021/10/31 05:15:17;;;;;;;;;;;10.60;99.90;;;;;;5053400;28;19913;-77
2021/10/31 05:17:43;;;;;;;;;;;10.60;99.90;;;;;;5052187;28;20323;-77
2021/10/31 05:20:09;;;;;;;;;;;10.60;99.90;;;;;;5053677;28;19919;-78
2021/10/31 05:22:36;;;;;;;;;;;10.60;99.90;;;;;;5051543;28;19920;-77
2021/10/31 05:25:02;;;;;;;;;;;10.60;99.90;;;;;;5051312;28;20015;-77
2021/10/31 05:27:27;;;;;;;;;;;10.60;99.90;;;;;;5051767;28;20015;-78
2021/10/31 05:29:52;;;;;;;;;;;10.60;99.90;;;;;;5051978;28;19912;-78
2021/10/31 05:32:18;;;;;;;;;;;10.50;99.90;;;;;;5052409;28;19913;-77
2021/10/31 05:34:43;;;;;;;;;;;10.50;99.90;;;;;;5051767;28;19921;-78
2021/10/31 05:37:09;;;;;;;;;;;10.50;99.90;;;;;;5051921;28;19927;-77
2021/10/31 05:39:35;;;;;;;;;;;10.40;99.90;;;;;;5051736;28;19959;-79
2021/10/31 05:42:00;;;;;;;;;;;10.40;99.90;;;;;;5051840;28;19920;-78
2021/10/31 05:44:26;;;;;;;;;;;10.40;99.90;;;;;;5051688;28;20301;-78
2021/10/31 05:46:52;;;;;;;;;;;10.50;99.90;;;;;;5053304;28;19917;-78
2021/10/31 05:49:17;;;;;;;;;;;10.50;99.90;;;;;;5051558;28;19917;-79
2021/10/31 05:51:43;;;;;;;;;;;10.50;99.90;;;;;;5051843;28;20451;-78
2021/10/31 05:54:09;;;;;;;;;;;10.50;99.90;;;;;;5051405;28;19913;-78
2021/10/31 05:56:35;;;;;;;;;;;10.50;99.90;;;;;;5053460;28;19913;-77
2021/10/31 05:59:00;;;;;;;;;;;10.50;99.90;;;;;;5052002;28;20398;-77
2021/10/31 06:01:26;;;;;;;;;;;10.50;99.90;;;;;;5055349;28;20372;-78
2021/10/31 06:03:51;;;;;;;;;;;10.50;99.90;;;;;;5056142;28;19913;-78
2021/10/31 06:06:26;;;;;;;;;;;10.50;99.90;;;;;;5054640;28;19912;-78
2021/10/31 06:08:52;;;;;;;;;;;10.60;99.90;;;;;;5056348;28;20365;-78
2021/10/31 06:11:18;;;;;;;;;;;10.60;99.90;;;;;;5055707;28;19928;-77
2021/10/31 06:13:43;;;;;;;;;;;10.60;99.90;;;;;;5055831;28;19913;-77
2021/10/31 06:16:09;;;;;;;;;;;10.60;99.90;;;;;;5058190;28;19913;-78
2021/10/31 06:18:36;;;;;;;;;;;10.60;99.90;;;;;;5062154;28;19913;-77
2021/10/31 06:21:02;;;;;;;;;;;10.50;99.90;;;;;;5062129;28;19912;-78
2021/10/31 06:23:28;;;;;;;;;;;10.50;99.90;;;;;;5063164;28;19969;-77
2021/10/31 06:25:53;;;;;;;;;;;10.40;99.90;;;;;;5063583;28;19920;-78
2021/10/31 06:28:19;;;;;;;;;;;10.40;99.90;;;;;;5062152;28;19925;-78
2021/10/31 06:30:44;;;;;;;;;;;10.40;99.90;;;;;;5062168;28;19913;-79
2021/10/31 06:33:10;;;;;;;;;;;10.30;99.90;;;;;;5075177;28;19905;-79
2021/10/31 06:35:36;;;;;;;;;;;10.20;99.90;;;;;;5078064;28;19901;-80
2021/10/31 06:38:01;;;;;;;;;;;10.20;99.90;;;;;;5082131;28;19916;-79
2021/10/31 06:40:27;;;;;;;;;;;10.30;99.90;;;;;;5082224;28;19901;-79
2021/10/31 06:42:53;;;;;;;;;;;10.30;99.90;;;;;;5082109;28;19901;-79
2021/10/31 06:45:19;;;;;;;;;;;10.30;99.90;;;;;;5081585;28;19924;-79
2021/10/31 06:47:44;;;;;;;;;;;10.30;99.90;;;;;;5081202;28;19976;-78
2021/10/31 06:50:10;;;;;;;;;;;10.30;99.90;;;;;;5082051;28;19956;-78
2021/10/31 06:52:35;;;;;;;;;;;10.30;99.90;;;;;;5081318;28;19900;-78
2021/10/31 06:55:01;;;;;;;;;;;10.30;99.90;;;;;;5080879;28;19901;-78
2021/10/31 06:57:27;;;;;;;;;;;10.30;99.90;;;;;;5079454;28;19924;-78
2021/10/31 06:59:52;;;;;;;;;;;10.20;99.90;;;;;;5079745;28;19920;-78
2021/10/31 07:02:18;;;;;;;;;;;10.20;99.90;;;;;;5079339;28;19908;-78
2021/10/31 07:04:43;;;;;;;;;;;10.20;99.90;;;;;;5074408;28;19917;-78
2021/10/31 07:07:09;;;;;;;;;;;10.30;99.90;;;;;;5062236;28;19932;-78
2021/10/31 07:09:34;;;;;;;;;;;10.30;99.90;;;;;;5061238;28;19935;-78
2021/10/31 07:12:00;;;;;;;;;;;10.30;99.90;;;;;;5058659;28;19913;-78
2021/10/31 07:14:26;;;;;;;;;;;10.30;99.90;;;;;;5058877;28;19913;-78
2021/10/31 07:16:51;;;;;;;;;;;10.40;99.90;;;;;;5058750;28;20003;-78
2021/10/31 07:19:17;;;;;;;;;;;10.40;99.90;;;;;;5058163;28;20389;-78
2021/10/31 07:21:43;;;;;;;;;;;10.40;99.90;;;;;;5056350;28;19979;-77
2021/10/31 07:24:09;;;;;;;;;;;10.50;99.90;;;;;;5055232;28;19913;-78
2021/10/31 07:26:34;;;;;;;;;;;10.40;99.90;;;;;;5055705;28;19923;-79
2021/10/31 07:29:00;;;;;;;;;;;10.50;99.90;;;;;;5055342;28;19912;-78
2021/10/31 07:31:27;;;;;;;;;;;10.50;99.90;;;;;;5056046;28;19912;-78
2021/10/31 07:33:57;;;;;;;;;;;10.50;99.90;;;;;;5056852;28;19920;-78
2021/10/31 07:36:22;;;;;;;;;;;10.50;99.90;;;;;;5055845;28;20292;-78
2021/10/31 07:38:48;;;;;;;;;;;10.50;99.90;;;;;;5054596;28;19920;-78
2021/10/31 07:41:13;;;;;;;;;;;10.60;99.90;;;;;;5058755;28;20432;-78
2021/10/31 07:43:39;;;;;;;;;;;10.50;99.90;;;;;;5057062;28;20381;-78
2021/10/31 07:46:04;;;;;;;;;;;10.50;99.90;;;;;;5057353;28;19913;-78
2021/10/31 07:48:30;;;;;;;;;;;10.60;99.90;;;;;;5055386;28;19924;-78
2021/10/31 07:50:55;;;;;;;;;;;10.60;99.90;;;;;;5056259;28;19913;-78
2021/10/31 07:53:21;;;;;;;;;;;10.70;99.90;;;;;;5055097;28;19920;-78
2021/10/31 07:55:51;;;;;;;;;;;10.70;99.90;;;;;;5054433;28;19913;-78
2021/10/31 07:58:20;;;;;;;;;;;10.70;99.90;;;;;;5058700;28;20008;-78
2021/10/31 08:00:46;;;;;;;;;;;10.80;99.90;;;;;;5058243;28;19988;-79
2021/10/31 08:03:11;;;;;;;;;;;10.80;99.90;;;;;;5054811;28;19944;-79
2021/10/31 08:05:38;;;;;;;;;;;11.00;99.90;;;;;;5054732;28;19951;-77
2021/10/31 08:08:03;;;;;;;;;;;11.00;99.90;;;;;;5053363;28;19971;-79
2021/10/31 08:10:29;;;;;;;;;;;11.10;99.90;;;;;;5054125;28;20397;-77
2021/10/31 08:12:55;;;;;;;;;;;11.20;99.90;;;;;;5055157;28;20369;-77
2021/10/31 08:15:20;;;;;;;;;;;11.30;99.90;;;;;;5054999;28;20416;-78
2021/10/31 08:17:46;;;;;;;;;;;11.30;99.90;;;;;;5052994;28;20335;-78
2021/10/31 08:20:12;;;;;;;;;;;11.40;99.90;;;;;;5053371;28;19967;-79
2021/10/31 08:22:37;;;;;;;;;;;11.50;99.90;;;;;;5052546;28;19913;-78
2021/10/31 08:25:04;;;;;;;;;;;11.60;99.90;;;;;;5052331;28;19944;-78
2021/10/31 08:27:30;;;;;;;;;;;11.60;99.90;;;;;;5052787;28;19932;-79
2021/10/31 08:29:55;;;;;;;;;;;11.70;99.90;;;;;;5053357;28;19962;-78
2021/10/31 08:32:23;;;;;;;;;;;11.80;99.90;;;;;;5053718;28;19912;-79
2021/10/31 08:34:49;;;;;;;;;;;11.80;99.90;;;;;;5054685;28;19913;-79
2021/10/31 08:37:15;;;;;;;;;;;11.90;99.90;;;;;;5054271;28;20292;-79
2021/10/31 08:39:41;;;;;;;;;;;11.90;99.90;;;;;;5053225;28;19912;-79
2021/10/31 08:42:06;;;;;;;;;;;12.00;99.90;;;;;;5053962;28;20007;-79
2021/10/31 08:44:34;;;;;;;;;;;12.10;99.90;;;;;;5053032;28;19920;-78
2021/10/31 08:47:00;;;;;;;;;;;12.30;99.90;;;;;;5052568;28;19921;-78
2021/10/31 08:49:25;;;;;;;;;;;12.40;99.90;;;;;;5052689;28;19959;-78
2021/10/31 08:51:51;;;;;;;;;;;12.50;99.90;;;;;;5053656;28;19913;-79
2021/10/31 08:54:18;;;;;;;;;;;12.60;99.90;;;;;;5052572;28;19912;-79
2021/10/31 08:56:44;;;;;;;;;;;12.70;99.90;;;;;;5054205;28;19917;-79
2021/10/31 08:59:10;;;;;;;;;;;12.80;99.90;;;;;;5052875;28;20060;-80
2021/10/31 09:01:35;;;;;;;;;;;12.90;99.90;;;;;;5052293;28;19912;-79
2021/10/31 09:04:01;;;;;;;;;;;12.90;99.90;;;;;;5053544;28;19924;-79
2021/10/31 09:06:26;;;;;;;;;;;12.90;99.90;;;;;;5052442;28;20000;-78
2021/10/31 09:08:52;;;;;;;;;;;13.00;99.90;;;;;;5052195;28;19923;-80
2021/10/31 09:11:18;;;;;;;;;;;13.00;99.90;;;;;;5053560;28;20289;-79
2021/10/31 09:13:43;;;;;;;;;;;13.10;99.90;;;;;;5052328;28;19912;-79
2021/10/31 09:16:09;;;;;;;;;;;13.10;99.90;;;;;;5052372;28;19924;-78
2021/10/31 09:18:36;;;;;;;;;;;13.20;99.90;;;;;;5053550;28;19919;-79
2021/10/31 09:21:02;;;;;;;;;;;13.10;99.90;;;;;;5053486;28;19913;-79
2021/10/31 09:23:28;;;;;;;;;;;13.20;99.90;;;;;;5053522;28;19913;-79
2021/10/31 09:25:53;;;;;;;;;;;13.30;99.90;;;;;;5052137;28;19939;-79
2021/10/31 09:28:21;;;;;;;;;;;13.20;99.90;;;;;;5034143;28;22080;-78
2021/10/31 09:30:46;;;;;;;;;;;13.30;99.90;;;;;;5052035;28;19998;-77
2021/10/31 09:33:12;;;;;;;;;;;13.40;99.90;;;;;;5052274;28;19917;-78
2021/10/31 09:35:45;;;;;;;;;;;13.40;99.90;;;;;;5051642;28;19913;-78
2021/10/31 09:38:12;;;;;;;;;;;13.40;99.90;;;;;;5051586;28;19913;-79
2021/10/31 09:40:38;;;;;;;;;;;13.50;99.90;;;;;;5052702;28;19959;-79
2021/10/31 09:43:04;;;;;;;;;;;13.50;99.90;;;;;;5051626;28;19963;-79
2021/10/31 09:45:30;;;;;;;;;;;13.50;99.90;;;;;;5051805;28;19931;-79
2021/10/31 09:47:58;;;;;;;;;;;13.50;99.90;;;;;;5051945;28;19917;-79
2021/10/31 09:50:24;;;;;;;;;;;13.50;99.90;;;;;;5053182;28;19913;-78
2021/10/31 09:52:49;;;;;;;;;;;13.60;99.90;;;;;;5053301;28;20004;-79
2021/10/31 09:55:15;;;;;;;;;;;13.50;99.90;;;;;;5052802;28;19948;-79
2021/10/31 09:57:40;;;;;;;;;;;13.50;99.90;;;;;;5051805;28;19913;-78
2021/10/31 10:00:06;;;;;;;;;;;13.40;99.90;;;;;;5053510;28;19913;-79
2021/10/31 10:02:51;;;;;;;;;;;13.40;99.90;;;;;;5051504;28;19966;-78
2021/10/31 10:05:17;;;;;;;;;;;13.50;99.90;;;;;;5051832;28;19913;-78
2021/10/31 10:07:42;;;;;;;;;;;13.60;99.90;;;;;;5053032;28;19917;-78
2021/10/31 10:10:10;;;;;;;;;;;13.60;99.90;;;;;;5051783;28;19913;-79
2021/10/31 10:12:36;;;;;;;;;;;13.70;99.90;;;;;;5054542;28;19913;-79
2021/10/31 10:15:07;;;;;;;;;;;13.80;99.90;;;;;;5057193;28;20347;-79
2021/10/31 10:17:43;;;;;;;;;;;13.90;99.90;;;;;;5056064;28;19913;-79
2021/10/31 10:20:12;;;;;;;;;;;14.10;99.90;;;;;;5055902;28;19920;-80
2021/10/31 10:22:38;;;;;;;;;;;14.00;99.90;;;;;;5055435;28;20018;-78
2021/10/31 10:25:04;;;;;;;;;;;14.00;99.90;;;;;;5056519;28;19912;-82
2021/10/31 10:27:34;;;;;;;;;;;14.00;99.90;;;;;;5055830;28;19924;-84
2021/10/31 10:30:10;;;;;;;;;;;14.00;99.90;;;;;;5058181;28;19917;-83
2021/10/31 10:32:35;;;;;;;;;;;14.20;99.90;;;;;;5056947;28;19913;-78
2021/10/31 10:35:02;;;;;;;;;;;14.10;99.90;;;;;;5056991;28;20395;-80
2021/10/31 10:37:29;;;;;;;;;;;14.20;99.90;;;;;;5056302;28;19919;-79
2021/10/31 10:39:56;;;;;;;;;;;14.20;99.90;;;;;;5054606;28;19920;-80
2021/10/31 10:42:24;;;;;;;;;;;14.30;99.90;;;;;;5047971;28;20431;-81
2021/10/31 10:44:49;;;;;;;;;;;14.40;99.90;;;;;;5057073;28;20369;-81
2021/10/31 10:47:21;;;;;;;;;;;14.30;99.90;;;;;;5055857;28;19935;-80
2021/10/31 10:49:47;;;;;;;;;;;14.30;99.90;;;;;;5052812;28;19917;-81
2021/10/31 10:52:23;;;;;;;;;;;14.30;99.90;;;;;;5056075;28;20392;-81
2021/10/31 10:54:49;;;;;;;;;;;14.40;99.90;;;;;;5042699;28;19924;-81
2021/10/31 10:57:15;;;;;;;;;;;14.40;99.90;;;;;;5057155;28;19916;-81
2021/10/31 10:59:40;;;;;;;;;;;14.30;99.90;;;;;;5054764;28;19912;-82
2021/10/31 11:02:06;;;;;;;;;;;14.40;99.90;;;;;;5055413;28;19916;-81
2021/10/31 11:04:31;;;;;;;;;;;14.40;99.90;;;;;;5051931;28;19916;-81
2021/10/31 11:06:57;;;;;;;;;;;14.40;99.90;;;;;;5059918;28;19917;-81
2021/10/31 11:09:22;;;;;;;;;;;14.30;99.90;;;;;;5054025;28;19913;-81
2021/10/31 11:11:48;;;;;;;;;;;14.30;99.90;;;;;;5045622;28;19913;-81
2021/10/31 11:14:14;;;;;;;;;;;14.20;99.90;;;;;;5071563;28;20385;-81
2021/10/31 11:16:39;;;;;;;;;;;14.30;99.90;;;;;;5056207;28;19917;-82
2021/10/31 11:19:05;;;;;;;;;;;14.30;99.90;;;;;;5056297;28;19913;-82
2021/10/31 11:21:30;;;;;;;;;;;14.30;99.90;;;;;;5055470;28;20408;-79
2021/10/31 11:23:56;;;;;;;;;;;14.40;99.90;;;;;;5053736;28;19963;-81
2021/10/31 11:26:23;;;;;;;;;;;14.40;99.90;;;;;;5056388;28;19917;-81
2021/10/31 11:28:49;;;;;;;;;;;14.40;99.90;;;;;;5056513;28;19921;-82
2021/10/31 11:31:15;;;;;;;;;;;14.40;99.90;;;;;;5056476;28;19913;-80
2021/10/31 11:33:40;;;;;;;;;;;14.50;99.90;;;;;;5054069;28;19913;-81
2021/10/31 11:36:06;;;;;;;;;;;14.50;99.90;;;;;;5055099;28;19959;-81
2021/10/31 11:38:32;;;;;;;;;;;14.40;99.90;;;;;;5054866;28;20362;-81
2021/10/31 11:41:00;;;;;;;;;;;14.40;99.90;;;;;;5054188;28;19995;-82
2021/10/31 11:43:26;;;;;;;;;;;14.30;99.90;;;;;;5054870;28;19912;-81
2021/10/31 11:45:53;;;;;;;;;;;14.40;99.90;;;;;;5051028;28;19913;-81
2021/10/31 11:48:18;;;;;;;;;;;14.40;99.90;;;;;;5048886;28;19920;-80
2021/10/31 11:50:59;;;;;;;;;;;14.40;99.90;;;;;;5049687;28;19930;-82
2021/10/31 11:53:26;;;;;;;;;;;14.30;99.90;;;;;;5045989;28;20007;-80
2021/10/31 11:55:53;;;;;;;;;;;14.40;99.90;;;;;;5044712;28;19928;-81
2021/10/31 11:58:23;;;;;;;;;;;14.30;99.90;;;;;;5046064;28;20389;-80
2021/10/31 12:00:53;;;;;;;;;;;14.30;99.90;;;;;;5047981;28;20339;-80
2021/10/31 12:03:39;;;;;;;;;;;14.40;99.90;;;;;;5044265;28;20004;-81
2021/10/31 12:06:14;;;;;;;;;;;14.50;99.90;;;;;;5046997;28;19912;-81
2021/10/31 12:08:59;;;;;;;;;;;14.40;99.90;;;;;;5048898;28;19921;-81
2021/10/31 12:11:31;;;;;;;;;;;14.40;99.90;;;;;;5044313;28;20062;-82
2021/10/31 12:14:02;;;;;;;;;;;14.40;99.90;;;;;;5044135;28;19920;-82
2021/10/31 12:16:28;;;;;;;;;;;14.40;99.90;;;;;;5045487;28;19913;-80
2021/10/31 12:18:56;;;;;;;;;;;14.40;99.90;;;;;;5050536;28;19913;-80
2021/10/31 12:21:23;;;;;;;;;;;14.50;99.90;;;;;;5050163;28;19963;-80
2021/10/31 12:23:51;;;;;;;;;;;14.50;99.90;;;;;;5053116;28;19980;-81
2021/10/31 12:26:23;;;;;;;;;;;14.50;99.90;;;;;;5055342;28;19912;-81
2021/10/31 12:28:49;;;;;;;;;;;14.40;99.90;;;;;;5054115;28;19929;-81
2021/10/31 12:31:22;;;;;;;;;;;14.40;99.90;;;;;;5055418;28;19919;-80
2021/10/31 12:34:15;;;;;;;;;;;14.50;99.90;;;;;;5053479;28;19913;-81
2021/10/31 12:36:42;;;;;;;;;;;14.50;99.90;;;;;;5052766;28;20008;-80
2021/10/31 12:39:29;;;;;;;;;;;14.60;99.90;;;;;;5055166;28;19978;-80
2021/10/31 12:42:10;;;;;;;;;;;14.60;99.90;;;;;;5032423;28;19963;-81
2021/10/31 12:44:37;;;;;;;;;;;14.60;99.90;;;;;;5053594;28;19920;-80
2021/10/31 12:47:15;;;;;;;;;;;14.60;99.90;;;;;;5052707;28;19920;-81
2021/10/31 12:49:41;;;;;;;;;;;14.60;99.90;;;;;;5052263;28;19960;-81
2021/10/31 12:52:26;;;;;;;;;;;14.70;99.90;;;;;;5049467;28;20437;-81
2021/10/31 12:54:56;;;;;;;;;;;14.80;99.90;;;;;;5051766;28;19921;-80
2021/10/31 12:57:22;;;;;;;;;;;14.80;99.90;;;;;;5052976;28;19913;-81
2021/10/31 12:59:50;;;;;;;;;;;14.80;99.90;;;;;;5054057;28;19920;-81
2021/10/31 13:02:21;;;;;;;;;;;14.80;99.90;;;;;;5046126;28;19913;-82
2021/10/31 13:04:54;;;;;;;;;;;14.90;99.90;;;;;;5052785;28;20377;-81
2021/10/31 13:07:24;;;;;;;;;;;14.90;99.90;;;;;;5053263;28;20423;-81
2021/10/31 13:09:50;;;;;;;;;;;14.90;99.90;;;;;;5052143;28;20401;-81
2021/10/31 13:12:27;;;;;;;;;;;14.80;99.90;;;;;;5053266;28;19913;-81
2021/10/31 13:14:52;;;;;;;;;;;14.80;99.90;;;;;;5054051;28;19912;-85
2021/10/31 13:17:18;;;;;;;;;;;14.90;99.90;;;;;;5053845;28;19912;-84
2021/10/31 13:19:46;;;;;;;;;;;15.00;99.90;;;;;;5053309;28;19920;-80
2021/10/31 13:22:13;;;;;;;;;;;15.00;99.90;;;;;;5053419;28;19913;-80
2021/10/31 13:24:44;;;;;;;;;;;15.10;99.90;;;;;;5052455;28;19912;-78
2021/10/31 13:27:15;;;;;;;;;;;15.10;99.90;;;;;;5051608;28;19929;-79
2021/10/31 13:29:44;;;;;;;;;;;15.10;99.90;;;;;;5053492;28;19912;-80
2021/10/31 13:32:11;;;;;;;;;;;15.10;99.90;;;;;;5053112;28;19958;-80
2021/10/31 13:34:38;;;;;;;;;;;15.20;99.90;;;;;;5051544;28;20433;-80
2021/10/31 13:37:06;;;;;;;;;;;15.20;99.90;;;;;;5053840;28;19913;-80
2021/10/31 13:39:32;;;;;;;;;;;15.30;99.90;;;;;;5050866;28;19919;-80
2021/10/31 13:42:00;;;;;;;;;;;15.30;99.90;;;;;;5044172;28;20015;-79
2021/10/31 13:44:26;;;;;;;;;;;15.30;99.90;;;;;;5049469;28;19999;-80
2021/10/31 13:47:16;;;;;;;;;;;15.30;99.90;;;;;;5049237;28;20312;-80
2021/10/31 13:49:47;;;;;;;;;;;15.30;99.90;;;;;;5033788;28;19921;-79
2021/10/31 13:52:14;;;;;;;;;;;15.20;99.90;;;;;;5034364;28;19914;-79
2021/10/31 13:54:44;;;;;;;;;;;15.20;99.90;;;;;;5050297;28;19940;-80
2021/10/31 13:57:20;;;;;;;;;;;15.30;99.90;;;;;;5052140;28;20431;-79
2021/10/31 13:59:49;;;;;;;;;;;15.30;99.90;;;;;;5052250;28;20003;-79
2021/10/31 14:02:19;;;;;;;;;;;15.30;99.90;;;;;;5051786;28;19920;-79
2021/10/31 14:04:45;;;;;;;;;;;15.30;99.90;;;;;;5051162;28;19962;-79
2021/10/31 14:07:12;;;;;;;;;;;15.30;99.90;;;;;;5052663;28;19916;-79
2021/10/31 14:09:43;;;;;;;;;;;15.30;99.90;;;;;;5047596;28;19917;-80
2021/10/31 14:12:16;;;;;;;;;;;15.30;99.90;;;;;;5050709;28;19963;-79
2021/10/31 14:14:46;;;;;;;;;;;15.30;99.90;;;;;;5050083;28;19967;-80
2021/10/31 14:17:22;;;;;;;;;;;15.30;99.90;;;;;;5043867;28;19912;-80